Time;durP1;ratioP1;P1;durP2;ratioP2;P2;SDS_P1;SDS_P2;PMS_P1;PMS_P2;Temp;Humidity;BMP_temperature;BMP_pressure;BME280_temperature;BME280_humidity;BME280_pressure;Samples;Min_cycle;Max_cycle;Signal;HPM_P1;HPM_P2
2021/11/09 00:00:30;;;;;;;6.22;3.72;;;;;;;13.36;45.12;102345.69;5012231;28;20385;-59
2021/11/09 00:02:55;;;;;;;13.00;3.20;;;;;;;13.34;44.76;102346.75;4998945;28;20022;-59
2021/11/09 00:05:24;;;;;;;9.75;3.95;;;;;;;13.29;44.43;102344.38;5012244;28;20026;-59
2021/11/09 00:07:58;;;;;;;8.88;3.63;;;;;;;13.28;44.83;102341.81;5012254;28;20104;-59
2021/11/09 00:10:25;;;;;;;9.57;4.05;;;;;;;13.23;45.58;102347.50;5012134;28;20057;-59
2021/11/09 00:12:54;;;;;;;7.63;3.05;;;;;;;13.19;45.59;102343.31;5010032;28;20030;-60
2021/11/09 00:15:22;;;;;;;10.48;3.67;;;;;;;13.18;44.56;102344.28;5012154;28;20045;-59
2021/11/09 00:18:02;;;;;;;15.68;3.60;;;;;;;13.14;44.84;102344.63;5012259;28;20160;-59
2021/11/09 00:20:30;;;;;;;7.28;3.53;;;;;;;13.12;45.34;102341.19;5012042;28;20044;-58
2021/11/09 00:22:56;;;;;;;10.40;3.25;;;;;;;13.07;44.73;102333.41;5000922;28;20030;-57
2021/11/09 00:25:24;;;;;;;8.40;3.58;;;;;;;13.05;44.88;102340.72;5011861;28;20026;-59
2021/11/09 00:27:50;;;;;;;12.98;3.90;;;;;;;13.03;45.63;102337.28;5011951;28;20083;-59
2021/11/09 00:30:17;;;;;;;6.30;3.38;;;;;;;13.02;44.87;102332.84;4983881;28;20342;-59
2021/11/09 00:32:43;;;;;;;17.48;4.47;;;;;;;12.99;45.50;102325.00;5011681;28;20048;-59
2021/11/09 00:35:10;;;;;;;10.73;3.22;;;;;;;12.98;44.71;102323.28;4998157;28;20034;-59
2021/11/09 00:37:36;;;;;;;7.30;4.03;;;;;;;12.97;44.72;102326.94;5010530;28;20037;-59
2021/11/09 00:40:02;;;;;;;17.85;4.15;;;;;;;12.96;45.78;102333.28;5011646;28;20057;-60
2021/11/09 00:42:28;;;;;;;6.15;3.30;;;;;;;12.92;45.02;102329.09;5011588;28;20030;-59
2021/11/09 00:44:53;;;;;;;9.13;3.85;;;;;;;12.95;45.37;102341.47;5011832;28;20108;-59
2021/11/09 00:47:18;;;;;;;9.40;3.70;;;;;;;12.93;44.62;102333.50;5007880;28;20071;-59
2021/11/09 00:49:44;;;;;;;12.13;4.13;;;;;;;12.93;44.97;102341.56;5011157;28;20036;-59
2021/11/09 00:52:11;;;;;;;8.77;3.38;;;;;;;12.92;44.99;102334.47;5011091;28;20184;-59
2021/11/09 00:54:37;;;;;;;10.93;3.78;;;;;;;12.89;45.33;102332.00;5011301;28;20030;-59
2021/11/09 00:57:03;;;;;;;6.20;3.30;;;;;;;12.88;45.26;102334.78;4992759;28;20395;-59
2021/11/09 00:59:28;;;;;;;10.93;3.78;;;;;;;12.86;44.69;102318.78;5009365;28;20029;-60
2021/11/09 01:01:55;;;;;;;6.97;3.33;;;;;;;12.84;45.63;102328.78;5011169;28;20048;-59
2021/11/09 01:04:20;;;;;;;7.68;3.40;;;;;;;12.82;45.28;102322.63;5011093;28;20040;-59
2021/11/09 01:06:46;;;;;;;5.22;3.60;;;;;;;12.79;44.94;102323.69;5011278;28;20494;-59
2021/11/09 01:09:12;;;;;;;8.50;2.90;;;;;;;12.77;44.83;102314.03;4996384;28;20026;-59
2021/11/09 01:11:38;;;;;;;6.28;3.33;;;;;;;12.71;44.89;102315.31;5014536;28;20030;-57
2021/11/09 01:14:04;;;;;;;5.50;3.25;;;;;;;12.72;44.49;102321.56;4997240;28;20022;-59
2021/11/09 01:16:29;;;;;;;9.55;4.20;;;;;;;12.69;45.74;102316.38;5015085;28;20033;-59
2021/11/09 01:18:57;;;;;;;9.98;3.33;;;;;;;12.70;45.17;102323.50;4998870;28;20104;-58
2021/11/09 01:21:22;;;;;;;11.73;3.45;;;;;;;12.67;45.35;102321.84;5014937;28;20030;-57
2021/11/09 01:23:52;;;;;;;10.60;3.13;;;;;;;12.68;45.12;102320.03;5015568;28;20030;-59
2021/11/09 01:26:18;;;;;;;9.65;3.63;;;;;;;12.63;45.21;102312.31;5013724;28;20033;-57
2021/11/09 01:28:47;;;;;;;11.52;3.63;;;;;;;12.62;44.71;102309.69;4996627;28;20049;-57
2021/11/09 01:31:13;;;;;;;7.75;3.60;;;;;;;12.62;45.56;102324.00;5014809;28;20516;-59
2021/11/09 01:33:38;;;;;;;5.43;3.58;;;;;;;12.61;45.13;102324.13;4996028;28;20033;-57
2021/11/09 01:36:05;;;;;;;10.43;3.78;;;;;;;12.61;45.79;102319.63;4994223;28;20056;-57
2021/11/09 01:38:32;;;;;;;9.75;3.88;;;;;;;12.62;45.56;102320.44;5014833;28;20044;-58
2021/11/09 01:40:58;;;;;;;8.30;3.63;;;;;;;12.63;45.04;102322.19;5014817;28;20081;-60
2021/11/09 01:43:24;;;;;;;10.13;4.30;;;;;;;12.63;45.55;102322.19;5014575;28;20025;-60
2021/11/09 01:45:50;;;;;;;10.77;3.47;;;;;;;12.63;44.87;102322.19;5014482;28;20083;-59
2021/11/09 01:48:17;;;;;;;10.90;4.45;;;;;;;12.63;45.23;102330.25;4996321;28;20121;-59
2021/11/09 01:50:52;;;;;;;9.68;3.78;;;;;;;12.64;45.05;102334.69;5014140;28;20371;-60
2021/11/09 01:53:18;;;;;;;10.40;4.43;;;;;;;12.65;45.66;102331.00;4998002;28;20467;-59
2021/11/09 01:55:44;;;;;;;19.40;4.15;;;;;;;12.62;45.64;102320.44;5013866;28;20026;-59
2021/11/09 01:58:12;;;;;;;11.25;3.88;;;;;;;12.64;45.26;102329.28;5014681;28;20033;-59
2021/11/09 02:00:51;;;;;;;8.85;4.15;;;;;;;12.61;45.24;102334.88;5010284;28;20124;-60
2021/11/09 02:03:17;;;;;;;8.32;3.40;;;;;;;12.61;45.18;102337.56;5010662;28;20025;-59
2021/11/09 02:05:43;;;;;;;9.57;3.70;;;;;;;12.59;45.04;102334.97;5001418;28;20026;-59
2021/11/09 02:08:08;;;;;;;12.10;3.58;;;;;;;12.54;45.23;102342.50;4998623;28;20032;-59
2021/11/09 02:10:36;;;;;;;8.40;3.15;;;;;;;12.54;45.69;102345.19;5014282;28;20021;-59
2021/11/09 02:13:03;;;;;;;11.23;5.25;;;;;;;12.52;44.92;102351.63;5012334;28;20465;-59
2021/11/09 02:15:30;;;;;;;13.15;3.35;;;;;;;12.49;45.53;102346.47;5014150;28;20025;-59
2021/11/09 02:17:56;;;;;;;6.72;3.20;;;;;;;12.47;44.53;102343.88;5014410;28;20034;-59
2021/11/09 02:20:23;;;;;;;13.57;3.38;;;;;;;12.44;45.96;102344.09;5005912;28;20040;-57
2021/11/09 02:22:50;;;;;;;10.77;3.10;;;;;;;12.39;46.04;102335.50;5014526;28;20029;-60
2021/11/09 02:25:17;;;;;;;7.50;3.03;;;;;;;12.41;45.72;102347.00;5009917;28;20108;-60
2021/11/09 02:27:43;;;;;;;8.95;3.22;;;;;;;12.33;46.05;102343.97;5014121;28;20030;-59
2021/11/09 02:30:12;;;;;;;7.50;2.97;;;;;;;12.38;45.98;102349.00;5013819;28;20037;-59
2021/11/09 02:32:37;;;;;;;8.25;3.13;;;;;;;12.38;45.44;102365.13;5003348;28;20029;-60
2021/11/09 02:35:04;;;;;;;10.18;3.47;;;;;;;12.35;45.18;102359.97;5013958;28;20029;-59
2021/11/09 02:37:30;;;;;;;5.28;3.22;;;;;;;12.34;45.35;102356.41;5013676;28;20084;-57
2021/11/09 02:39:55;;;;;;;8.57;4.03;;;;;;;12.36;45.42;102353.63;4986253;28;20061;-58
2021/11/09 02:42:21;;;;;;;8.63;3.25;;;;;;;12.35;45.64;102355.47;4999828;28;20029;-57
2021/11/09 02:44:55;;;;;;;11.65;3.05;;;;;;;12.34;45.93;102355.56;5014064;28;20266;-56
2021/11/09 02:47:24;;;;;;;7.55;3.10;;;;;;;12.31;45.00;102350.41;5012046;28;20022;-57
2021/11/09 02:52:22;;;;;;;9.35;3.30;;;;;;;12.22;45.09;102346.50;5013490;28;20448;-59
2021/11/09 02:54:49;;;;;;;8.80;3.83;;;;;;;12.24;45.18;102358.88;5013544;28;20033;-56
2021/11/09 02:57:29;;;;;;;14.57;3.67;;;;;;;12.24;45.36;102352.63;5013614;28;20022;-58
2021/11/09 03:00:05;;;;;;;7.82;3.72;;;;;;;12.23;45.84;102350.91;5002643;28;20030;-57
2021/11/09 03:02:38;;;;;;;10.18;3.65;;;;;;;12.21;44.81;102352.84;5013874;28;20112;-58
2021/11/09 03:05:16;;;;;;;11.70;3.20;;;;;;;12.18;45.74;102348.53;5013670;28;20112;-57
2021/11/09 03:07:55;;;;;;;8.60;2.40;;;;;;;12.16;45.51;102349.59;5013640;28;20115;-57
2021/11/09 03:12:46;;;;;;;8.43;2.95;;;;;;;12.07;46.07;102343.00;5013706;28;20088;-57
2021/11/09 03:15:13;;;;;;;7.03;2.53;;;;;;;12.09;45.62;102354.50;5013422;28;20391;-57
2021/11/09 03:17:54;;;;;;;10.25;2.95;;;;;;;12.10;45.70;102352.69;5013405;28;20471;-56
2021/11/09 03:45:10;;;;;;;6.93;2.90;;;;;;;11.91;45.58;102369.16;5012957;28;20499;-56
2021/11/09 03:47:40;;;;;;;7.60;2.72;;;;;;;11.88;46.24;102372.03;5013020;28;20045;-57
2021/11/09 03:50:08;;;;;;;8.65;3.03;;;;;;;11.93;45.78;102371.72;5013129;28;20018;-58
2021/11/09 03:52:44;;;;;;;10.07;3.60;;;;;;;11.93;45.60;102375.28;5013052;28;20033;-57
2021/11/09 03:55:13;;;;;;;5.05;2.95;;;;;;;11.93;45.50;102359.16;5012086;28;20029;-57
2021/11/09 03:57:52;;;;;;;9.40;3.03;;;;;;;11.87;45.48;102359.56;5012173;28;20022;-59
2021/11/09 04:00:29;;;;;;;9.48;2.90;;;;;;;11.92;45.59;102368.16;5012082;28;20029;-57
2021/11/09 04:03:00;;;;;;;12.18;3.17;;;;;;;11.91;45.93;102355.72;5010218;28;20390;-58
2021/11/09 04:05:33;;;;;;;12.98;4.03;;;;;;;11.93;45.60;102359.16;5011721;28;20025;-57
2021/11/09 04:08:05;;;;;;;9.93;3.03;;;;;;;11.95;45.58;102364.44;5011682;28;20100;-57
2021/11/09 04:10:41;;;;;;;15.32;3.53;;;;;;;11.95;46.29;102356.41;5011337;28;20036;-57
2021/11/09 04:13:21;;;;;;;11.38;3.60;;;;;;;11.97;46.52;102371.44;5011803;28;20044;-57
2021/11/09 04:18:44;;;;;;;12.55;2.60;;;;;;;11.94;46.00;102366.28;5011946;28;20033;-57
2021/11/09 04:29:21;;;;;;;10.93;3.17;;;;;;;11.88;45.91;102366.66;5011656;28;20041;-57
2021/11/09 05:08:52;;;;;;;8.63;2.47;;;;;;;11.71;45.48;102391.06;5006825;28;20037;-57
2021/11/09 05:11:18;;;;;;;11.68;2.92;;;;;;;11.69;46.45;102395.66;5011592;28;20032;-57
2021/11/09 05:13:43;;;;;;;9.68;3.50;;;;;;;11.68;46.15;102394.75;5011518;28;20823;-58
2021/11/09 05:16:08;;;;;;;12.25;2.80;;;;;;;11.68;46.00;102388.53;5004688;28;20033;-57
2021/11/09 05:18:34;;;;;;;8.07;2.50;;;;;;;11.68;45.47;102388.53;5011566;28;20033;-57
2021/11/09 05:21:00;;;;;;;6.70;2.85;;;;;;;11.63;45.52;102388.84;5007190;28;20056;-57
2021/11/09 05:23:25;;;;;;;4.03;2.22;;;;;;;11.66;46.05;102398.50;5011176;28;20037;-58
2021/11/09 05:25:51;;;;;;;7.35;3.10;;;;;;;11.64;46.01;102392.38;5011380;28;20018;-57
2021/11/09 05:28:16;;;;;;;6.05;2.47;;;;;;;11.65;46.13;102397.63;5011015;28;20018;-57
2021/11/09 05:30:45;;;;;;;7.93;2.75;;;;;;;11.64;46.13;102395.06;5010911;28;20121;-57
2021/11/09 05:33:11;;;;;;;5.40;2.10;;;;;;;11.63;45.70;102394.19;5011284;28;20026;-57
2021/11/09 05:35:37;;;;;;;6.35;2.47;;;;;;;11.60;46.41;102398.88;5010862;28;20025;-57
2021/11/09 05:38:04;;;;;;;4.38;2.58;;;;;;;11.62;45.72;102408.56;5010965;28;20501;-57
2021/11/09 05:40:34;;;;;;;8.95;2.33;;;;;;;11.61;46.26;102406.00;5016402;28;20383;-57
2021/11/09 05:43:00;;;;;;;10.52;3.05;;;;;;;11.60;45.68;102413.19;5026852;28;20049;-57
2021/11/09 05:45:25;;;;;;;6.90;2.60;;;;;;;11.60;46.15;102415.00;5007903;28;20049;-57
2021/11/09 05:47:51;;;;;;;6.05;2.97;;;;;;;11.56;45.91;102402.72;5027344;28;20060;-56
2021/11/09 05:50:18;;;;;;;7.05;3.08;;;;;;;11.55;45.92;102422.47;5026744;28;20017;-58
2021/11/09 05:52:43;;;;;;;16.40;3.28;;;;;;;11.59;46.18;102426.69;5026752;28;20080;-57
2021/11/09 05:55:09;;;;;;;9.93;3.05;;;;;;;11.61;46.26;102432.84;5023307;28;20401;-56
2021/11/09 05:57:35;;;;;;;10.60;3.00;;;;;;;11.57;45.90;102425.91;5030417;28;20041;-57
2021/11/09 06:00:02;;;;;;;5.90;2.50;;;;;;;11.60;46.10;102433.78;5030232;28;20017;-58
2021/11/09 06:02:28;;;;;;;3.97;2.30;;;;;;;11.60;46.09;102436.47;5030196;28;20025;-57
2021/11/09 06:04:54;;;;;;;12.75;3.50;;;;;;;11.60;46.04;102436.47;5011231;28;20540;-58
2021/11/09 06:07:20;;;;;;;5.35;2.65;;;;;;;11.57;45.77;102442.03;5028975;28;20021;-57
2021/11/09 06:09:45;;;;;;;4.30;2.67;;;;;;;11.57;45.85;102442.03;5012513;28;20074;-58
2021/11/09 06:12:11;;;;;;;12.18;2.85;;;;;;;11.53;45.73;102437.81;5029850;28;20368;-57
2021/11/09 06:14:36;;;;;;;7.97;2.35;;;;;;;11.52;45.97;102444.13;5030471;28;20033;-57
2021/11/09 06:17:02;;;;;;;7.40;2.80;;;;;;;11.48;45.91;102450.63;5030122;28;20026;-57
2021/11/09 06:19:27;;;;;;;9.65;2.90;;;;;;;11.44;45.64;102446.44;5030087;28;20121;-58
2021/11/09 06:21:53;;;;;;;8.88;2.40;;;;;;;11.42;45.84;102448.31;5030063;28;20028;-58
2021/11/09 06:24:18;;;;;;;7.68;2.60;;;;;;;11.45;46.48;102456.19;5029086;28;20052;-56
2021/11/09 06:26:44;;;;;;;8.88;2.72;;;;;;;11.44;46.60;102454.47;5029912;28;20025;-57
2021/11/09 06:29:10;;;;;;;10.85;3.53;;;;;;;11.44;46.33;102458.03;5011866;28;20029;-57
2021/11/09 06:31:35;;;;;;;8.60;3.28;;;;;;;11.45;46.10;102458.88;5029885;28;20025;-56
2021/11/09 06:34:01;;;;;;;11.07;3.03;;;;;;;11.45;46.58;102462.44;5029269;28;20024;-57
2021/11/09 06:36:26;;;;;;;7.05;3.10;;;;;;;11.45;46.06;102459.75;5027560;28;20116;-58
2021/11/09 06:38:52;;;;;;;6.22;2.88;;;;;;;11.46;46.20;102466.84;5026483;28;20033;-58
2021/11/09 06:41:17;;;;;;;3.63;2.08;;;;;;;11.45;45.82;102462.44;5029375;28;20482;-56
2021/11/09 06:43:42;;;;;;;8.65;2.78;;;;;;;11.44;46.04;102463.41;5029080;28;20021;-57
2021/11/09 06:46:08;;;;;;;3.28;2.40;;;;;;;11.44;46.27;102467.91;5029489;28;20017;-57
2021/11/09 06:48:33;;;;;;;7.05;3.08;;;;;;;11.43;46.06;102471.53;5029459;28;20104;-58
2021/11/09 06:50:59;;;;;;;10.07;3.38;;;;;;;11.40;45.86;102466.34;5027907;28;20026;-58
2021/11/09 06:53:28;;;;;;;10.60;4.10;;;;;;;11.44;45.88;102479.50;5028058;28;20049;-57
2021/11/09 06:55:53;;;;;;;12.38;3.78;;;;;;;11.46;46.19;102482.94;5029514;28;20363;-58
2021/11/09 06:58:19;;;;;;;7.95;4.28;;;;;;;11.43;45.54;102472.41;5027848;28;20128;-58
2021/11/09 07:00:45;;;;;;;11.07;2.90;;;;;;;11.45;45.80;102475.84;5029215;28;20051;-57
2021/11/09 07:03:10;;;;;;;19.65;3.53;;;;;;;11.49;46.05;102493.50;5029533;28;20029;-57
2021/11/09 07:05:35;;;;;;;8.70;2.38;;;;;;;11.50;46.51;102489.00;5029424;28;20043;-57
2021/11/09 07:08:01;;;;;;;6.15;3.00;;;;;;;11.50;46.25;102494.34;5027575;28;20021;-57
2021/11/09 07:10:26;;;;;;;8.07;3.15;;;;;;;11.52;46.10;102497.81;5029013;28;20026;-58
2021/11/09 07:12:52;;;;;;;7.22;3.47;;;;;;;11.55;45.73;102500.31;5027265;28;20491;-57
2021/11/09 07:15:18;;;;;;;13.52;3.03;;;;;;;11.57;46.18;102498.38;5028959;28;20032;-58
2021/11/09 07:17:45;;;;;;;9.02;2.42;;;;;;;11.59;45.71;102507.19;5028587;28;20049;-57
2021/11/09 07:20:13;;;;;;;5.18;2.30;;;;;;;11.60;46.04;102507.13;5010125;28;20108;-58
2021/11/09 07:22:39;;;;;;;9.82;3.28;;;;;;;11.63;45.89;102506.06;5027920;28;20045;-57
2021/11/09 07:25:05;;;;;;;13.82;2.67;;;;;;;11.65;45.81;102499.63;5006558;28;20021;-58
2021/11/09 07:27:31;;;;;;;11.70;3.45;;;;;;;11.66;45.98;102505.88;5028256;28;20044;-58
2021/11/09 07:29:57;;;;;;;8.00;2.92;;;;;;;11.68;45.60;102504.81;5027291;28;20025;-57
2021/11/09 07:32:24;;;;;;;7.00;3.15;;;;;;;11.77;46.17;102502.53;5027583;28;20036;-58
2021/11/09 07:34:50;;;;;;;8.13;3.10;;;;;;;11.83;46.05;102500.34;5027740;28;20017;-58
2021/11/09 07:37:15;;;;;;;6.50;3.08;;;;;;;11.89;46.26;102501.78;5026707;28;20032;-57
2021/11/09 07:39:40;;;;;;;5.75;2.97;;;;;;;11.93;46.08;102501.47;5026772;28;20486;-57
2021/11/09 07:42:06;;;;;;;8.68;2.85;;;;;;;11.97;46.30;102503.03;5027062;28;20473;-57
2021/11/09 07:44:32;;;;;;;7.93;3.08;;;;;;;11.99;45.95;102502.91;5026714;28;20040;-58
2021/11/09 07:46:57;;;;;;;10.10;3.42;;;;;;;12.04;46.30;102493.59;5026485;28;20422;-58
2021/11/09 07:49:23;;;;;;;14.30;4.25;;;;;;;12.09;46.00;102494.16;5027015;28;20021;-58
2021/11/09 07:51:49;;;;;;;9.75;3.95;;;;;;;12.12;45.79;102493.13;5027831;28;20401;-57
2021/11/09 07:54:14;;;;;;;9.60;3.38;;;;;;;12.17;46.58;102497.22;5027488;28;20029;-60
2021/11/09 07:56:40;;;;;;;8.13;3.47;;;;;;;12.20;46.56;102497.03;5027777;28;20033;-59
2021/11/09 08:01:44;;;;;;;8.25;3.55;;;;;;;12.25;45.86;102494.91;5027491;28;20478;-60
2021/11/09 08:06:48;;;;;;;8.45;3.25;;;;;;;12.39;46.47;102501.22;5026495;28;20018;-59
2021/11/09 08:09:28;;;;;;;14.38;4.03;;;;;;;12.44;46.62;102491.03;5027468;28;20080;-60
2021/11/09 08:11:57;;;;;;;12.00;4.00;;;;;;;12.55;46.41;102496.56;5027815;28;20026;-59
2021/11/09 08:14:23;;;;;;;16.13;4.05;;;;;;;12.66;45.80;102494.03;5025403;28;20524;-60
2021/11/09 08:16:49;;;;;;;11.85;5.53;;;;;;;12.78;45.74;102498.59;5027757;28;20021;-59
2021/11/09 08:19:16;;;;;;;15.25;5.40;;;;;;;12.90;46.36;102500.44;5027189;28;20022;-59
2021/11/09 08:21:42;;;;;;;8.43;4.55;;;;;;;13.08;46.49;102503.78;5026046;28;20064;-59
2021/11/09 08:24:08;;;;;;;12.52;4.50;;;;;;;13.26;46.04;102500.69;5027755;28;20115;-59
2021/11/09 08:26:33;;;;;;;7.90;4.00;;;;;;;13.42;46.49;102495.13;5010261;28;20589;-59
2021/11/09 08:29:06;;;;;;;9.90;4.47;;;;;;;13.62;46.24;102491.91;5027630;28;20029;-59
2021/11/09 08:31:33;;;;;;;10.95;5.03;;;;;;;13.87;45.27;102496.41;5027152;28;20022;-59
2021/11/09 08:34:01;;;;;;;12.18;4.80;;;;;;;14.05;45.43;102499.59;5027116;28;20053;-59
2021/11/09 08:36:29;;;;;;;14.95;5.75;;;;;;;14.25;45.52;102499.88;5027407;28;20030;-60
2021/11/09 08:39:00;;;;;;;27.90;8.80;;;;;;;14.48;45.48;102491.00;5027326;28;20501;-60
2021/11/09 08:41:27;;;;;;;34.08;12.70;;;;;;;14.73;45.89;102486.47;5006498;28;20053;-60
2021/11/09 08:44:07;;;;;;;82.15;31.65;;;;;;;15.00;45.95;102495.16;5011476;28;20025;-59
2021/11/09 08:49:24;;;;;;;12.25;6.88;;;;;;;15.59;44.13;102480.63;5006009;28;20037;-60
2021/11/09 08:51:52;;;;;;;32.40;10.77;;;;;;;15.85;44.61;102486.66;5011844;28;20049;-59
2021/11/09 08:54:25;;;;;;;28.33;7.82;;;;;;;16.11;45.13;102487.25;5011594;28;20554;-60
2021/11/09 09:05:05;;;;;;;23.73;8.07;;;;;;;17.07;43.93;102482.81;5011512;28;20060;-59
2021/11/09 09:07:33;;;;;;;15.85;6.05;;;;;;;17.39;44.03;102486.34;5007374;28;20366;-60
2021/11/09 09:09:59;;;;;;;24.80;9.95;;;;;;;17.71;43.24;102486.28;5011730;28;20080;-59
2021/11/09 09:12:25;;;;;;;16.33;6.18;;;;;;;18.01;43.38;102486.25;5011787;28;20026;-60
2021/11/09 09:14:52;;;;;;;15.10;4.55;;;;;;;18.36;42.85;102489.41;5010116;28;20108;-59
2021/11/09 09:17:18;;;;;;;18.10;4.75;;;;;;;18.69;42.84;102492.75;5011584;28;20029;-60
2021/11/09 09:20:09;;;;;;;30.98;10.65;;;;;;;19.00;42.37;102489.78;5012034;28;20014;-60
2021/11/09 09:22:41;;;;;;;318.83;91.50;;;;;;;19.41;42.32;102487.75;5011963;28;20474;-60
2021/11/09 09:52:16;;;;;;;11.77;3.30;;;;;;;23.39;38.82;102498.78;4994587;28;20105;-61
2021/11/09 09:57:14;;;;;;;13.25;3.17;;;;;;;23.90;38.12;102491.19;4994448;28;20121;-61
2021/11/09 09:59:41;;;;;;;13.55;3.33;;;;;;;24.05;37.36;102484.78;4994301;28;20032;-61
2021/11/09 10:02:09;;;;;;;11.27;3.50;;;;;;;24.29;37.42;102492.06;4993040;28;20033;-61
2021/11/09 10:04:36;;;;;;;6.78;3.65;;;;;;;24.49;36.56;102490.59;4994527;28;20037;-61
2021/11/09 10:07:03;;;;;;;12.25;3.80;;;;;;;24.69;36.90;102497.31;4993697;28;20532;-61
2021/11/09 10:09:34;;;;;;;11.43;3.10;;;;;;;24.86;35.98;102478.91;4989379;28;20056;-61
2021/11/09 10:12:19;;;;;;;8.70;3.00;;;;;;;25.07;35.81;102484.56;4993886;28;20026;-61
2021/11/09 10:14:47;;;;;;;10.85;3.90;;;;;;;25.20;36.27;102487.56;4994004;28;20407;-61
2021/11/09 10:17:22;;;;;;;9.52;3.28;;;;;;;25.33;35.42;102492.41;4993776;28;20030;-61
2021/11/09 10:19:48;;;;;;;11.52;2.95;;;;;;;25.50;35.47;102487.66;4990205;28;20097;-61
2021/11/09 10:22:32;;;;;;;12.40;4.05;;;;;;;25.67;35.17;102483.72;4990156;28;20717;-61
2021/11/09 10:25:10;;;;;;;11.05;3.20;;;;;;;25.85;34.72;102493.28;4993921;28;20030;-61
2021/11/09 10:27:37;;;;;;;17.80;3.58;;;;;;;25.95;34.79;102479.28;4992384;28;20444;-61
2021/11/09 10:30:13;;;;;;;11.23;3.80;;;;;;;26.04;34.69;102483.63;4992981;28;20038;-61
2021/11/09 10:32:38;;;;;;;12.18;3.47;;;;;;;26.08;34.86;102481.34;4993556;28;20081;-61
2021/11/09 10:35:07;;;;;;;10.35;3.17;;;;;;;26.15;34.56;102477.69;4993621;28;20419;-60
2021/11/09 10:37:35;;;;;;;10.40;3.40;;;;;;;26.22;34.30;102491.50;4993296;28;20105;-61
2021/11/09 10:40:07;;;;;;;12.10;3.35;;;;;;;26.31;34.30;102473.84;4999889;28;20045;-61
2021/11/09 10:42:38;;;;;;;9.07;3.03;;;;;;;26.34;33.82;102479.84;5030068;28;20023;-61
2021/11/09 10:45:10;;;;;;;11.55;3.50;;;;;;;26.33;33.79;102474.50;5029934;28;20133;-61
2021/11/09 10:48:04;;;;;;;10.25;3.45;;;;;;;26.39;33.22;102482.00;5030898;28;20025;-61
2021/11/09 10:50:40;;;;;;;8.77;3.15;;;;;;;26.47;33.48;102481.88;5027495;28;20049;-61
2021/11/09 11:04:33;;;;;;;9.07;3.30;;;;;;;26.80;32.54;102465.81;5029991;28;20059;-59
2021/11/09 11:07:04;;;;;;;3.75;2.65;;;;;;;26.83;32.00;102471.75;5029703;28;20025;-59
2021/11/09 11:09:29;;;;;;;6.03;2.55;;;;;;;26.84;32.33;102459.69;5029464;28;20113;-59
2021/11/09 11:11:59;;;;;;;7.57;2.63;;;;;;;26.87;32.13;102456.56;5029546;28;20108;-59
2021/11/09 11:14:26;;;;;;;11.23;3.38;;;;;;;26.85;32.48;102455.06;5027368;28;20017;-59
2021/11/09 11:16:55;;;;;;;10.95;2.90;;;;;;;26.88;32.14;102458.28;5026227;28;20087;-59
2021/11/09 11:19:33;;;;;;;12.75;2.78;;;;;;;26.91;31.40;102459.78;5029262;28;20049;-59
2021/11/09 11:22:00;;;;;;;11.40;2.80;;;;;;;26.94;31.58;102451.97;5029514;28;20033;-59
2021/11/09 11:24:25;;;;;;;9.75;3.17;;;;;;;26.97;31.91;102450.72;5029450;28;20025;-59
2021/11/09 11:26:52;;;;;;;6.68;2.50;;;;;;;26.96;31.57;102455.38;5029355;28;20029;-59
2021/11/09 11:29:22;;;;;;;7.43;3.58;;;;;;;26.95;31.40;102442.66;5029216;28;20389;-59
2021/11/09 11:31:49;;;;;;;11.90;2.85;;;;;;;26.95;31.77;102448.16;5029090;28;20508;-58
2021/11/09 11:34:16;;;;;;;10.82;2.65;;;;;;;26.95;31.59;102439.06;5029128;28;20021;-59
2021/11/09 11:36:42;;;;;;;4.70;2.28;;;;;;;26.97;31.10;102439.72;5028779;28;20532;-59
2021/11/09 11:39:09;;;;;;;7.82;2.55;;;;;;;26.95;30.96;102431.66;5011626;28;20025;-59
2021/11/09 11:41:40;;;;;;;5.32;2.00;;;;;;;26.87;31.33;102423.56;5007799;28;20057;-59
2021/11/09 11:44:07;;;;;;;7.72;2.88;;;;;;;26.90;31.29;102428.66;5010498;28;20029;-59
2021/11/09 11:46:33;;;;;;;8.63;2.42;;;;;;;26.93;31.04;102420.00;5012007;28;20406;-59
2021/11/09 11:49:12;;;;;;;9.95;2.72;;;;;;;26.94;31.08;102429.94;5011970;28;20041;-59
2021/11/09 11:51:58;;;;;;;5.10;1.80;;;;;;;27.00;30.93;102429.16;5012095;28;20025;-59
2021/11/09 11:54:40;;;;;;;9.77;3.72;;;;;;;27.05;30.32;102421.16;5011198;28;20057;-59
2021/11/09 11:57:05;;;;;;;5.90;2.22;;;;;;;27.07;31.35;102421.84;5011608;28;20025;-59
2021/11/09 11:59:31;;;;;;;11.40;2.25;;;;;;;27.09;31.00;102416.97;5011763;28;20025;-59
2021/11/09 12:02:05;;;;;;;9.48;2.30;;;;;;;27.08;29.95;102412.50;5011507;28;20394;-59
2021/11/09 12:04:50;;;;;;;10.38;2.05;;;;;;;27.04;30.83;102407.63;5011577;28;20034;-59
2021/11/09 12:07:18;;;;;;;6.30;2.17;;;;;;;26.95;30.73;102406.91;5011870;28;20088;-59
2021/11/09 12:09:46;;;;;;;6.72;2.35;;;;;;;26.84;30.04;102396.44;5009941;28;20029;-59
2021/11/09 12:12:11;;;;;;;5.18;1.65;;;;;;;26.77;30.78;102406.50;5011836;28;20022;-61
2021/11/09 12:14:51;;;;;;;7.32;1.90;;;;;;;26.66;30.05;102393.28;5011722;28;20064;-61
2021/11/09 12:17:42;;;;;;;6.15;1.85;;;;;;;26.63;30.15;102388.19;5011565;28;20121;-58
2021/11/09 12:20:16;;;;;;;6.38;2.10;;;;;;;26.55;29.99;102391.03;5011973;28;20037;-59
2021/11/09 12:22:47;;;;;;;7.13;1.50;;;;;;;26.49;30.40;102380.84;5010510;28;20034;-59
2021/11/09 12:25:22;;;;;;;6.43;1.50;;;;;;;26.41;29.92;102383.72;5011497;28;20025;-59
2021/11/09 12:27:47;;;;;;;6.65;1.73;;;;;;;26.33;30.54;102381.94;5011681;28;20049;-59
2021/11/09 12:30:37;;;;;;;10.65;2.72;;;;;;;26.27;30.44;102374.47;5011535;28;20026;-59
2021/11/09 12:33:20;;;;;;;7.05;1.88;;;;;;;26.23;30.48;102375.06;5010759;28;20418;-59
2021/11/09 12:35:47;;;;;;;7.57;1.38;;;;;;;26.18;30.72;102372.91;5011385;28;20038;-59
2021/11/09 12:38:19;;;;;;;5.32;2.60;;;;;;;26.16;30.26;102365.91;5011136;28;20476;-59
2021/11/09 12:40:47;;;;;;;4.78;1.55;;;;;;;26.12;30.26;102372.78;5017979;28;20124;-59
2021/11/09 12:43:12;;;;;;;7.40;2.03;;;;;;;26.06;30.70;102371.66;5025689;28;20029;-59
2021/11/09 12:45:44;;;;;;;6.10;1.20;;;;;;;26.01;30.39;102366.75;5019007;28;20355;-59
2021/11/09 12:48:13;;;;;;;4.03;1.30;;;;;;;25.99;30.76;102363.31;5012634;28;20036;-59
2021/11/09 12:50:48;;;;;;;5.15;1.33;;;;;;;25.94;30.22;102362.19;5013744;28;20474;-59
2021/11/09 12:53:15;;;;;;;5.22;1.45;;;;;;;25.91;30.64;102365.31;5021920;28;20485;-59
2021/11/09 12:55:42;;;;;;;6.10;1.73;;;;;;;25.86;30.16;102367.81;5016702;28;20544;-59
2021/11/09 12:58:20;;;;;;;9.07;2.30;;;;;;;25.78;30.07;102357.78;5019622;28;20013;-59
2021/11/09 13:01:23;;;;;;;5.85;1.83;;;;;;;25.75;30.25;102358.16;5021992;28;20025;-59
2021/11/09 13:06:37;;;;;;;2.22;1.30;;;;;;;25.69;30.24;102350.69;5013481;28;20505;-59
2021/11/09 13:09:07;;;;;;;6.30;2.08;;;;;;;25.65;30.38;102343.03;5025060;28;20104;-59
2021/11/09 13:11:39;;;;;;;6.65;2.67;;;;;;;25.62;30.61;102347.03;5019280;28;20466;-59
2021/11/09 13:14:08;;;;;;;6.57;2.20;;;;;;;25.60;30.37;102349.09;5026629;28;20107;-61
2021/11/09 13:16:34;;;;;;;8.38;1.55;;;;;;;25.58;30.33;102348.44;5016368;28;20018;-61
2021/11/09 13:19:07;;;;;;;6.47;1.50;;;;;;;25.57;30.32;102345.91;5006648;28;20033;-61
2021/11/09 13:21:35;;;;;;;;;;;;;;;25.57;30.63;102346.75;5022597;28;20040;-61
2021/11/09 13:24:01;;;;;;;4.88;1.40;;;;;;;25.53;30.64;102339.91;5024694;28;20357;-61
2021/11/09 13:26:27;;;;;;;10.38;2.97;;;;;;;25.52;30.83;102346.44;5018226;28;20088;-61
2021/11/09 13:28:52;;;;;;;5.57;1.52;;;;;;;25.50;30.64;102343.03;5022421;28;20021;-61
2021/11/09 13:31:17;;;;;;;5.13;1.58;;;;;;;25.44;30.61;102339.13;5022984;28;20053;-61
2021/11/09 13:33:50;;;;;;;12.80;1.27;;;;;;;25.44;30.27;102346.50;5020888;28;20022;-61
2021/11/09 13:36:21;;;;;;;4.82;2.60;;;;;;;25.43;30.86;102347.56;5029559;28;20029;-61
2021/11/09 13:38:47;;;;;;;10.40;1.67;;;;;;;25.43;30.89;102347.56;5024020;28;20029;-61
2021/11/09 13:41:18;;;;;;;6.63;1.77;;;;;;;25.40;30.93;102350.69;5026604;28;20049;-61
2021/11/09 13:43:53;;;;;;;7.65;1.65;;;;;;;25.35;30.69;102350.38;5023614;28;20033;-61
2021/11/09 13:46:19;;;;;;;9.55;1.92;;;;;;;25.25;30.52;102353.44;5025852;28;20033;-61